createdAt,value
2023-02-18T00:02:43.241Z,100680.97
2023-02-18T00:05:46.046Z,100679.94
2023-02-18T00:08:49.695Z,100683.56
2023-02-18T00:11:53.901Z,100678.16
2023-02-18T00:14:56.464Z,100677.03
2023-02-18T00:17:59.508Z,100687.06
2023-02-18T00:21:04.949Z,100686.38
2023-02-18T00:24:08.808Z,100683.78
2023-02-18T00:27:11.531Z,100677.50
2023-02-18T00:30:14.758Z,100678.47
2023-02-18T00:33:17.587Z,100682.94
2023-02-18T00:36:21.989Z,100681.91
2023-02-18T00:39:24.651Z,100681.88
2023-02-18T00:42:27.546Z,100687.06
2023-02-18T00:45:30.110Z,100687.78
2023-02-18T00:48:33.295Z,100690.34
2023-02-18T00:51:36.843Z,100688.53
2023-02-18T00:54:39.704Z,100690.38
2023-02-18T00:57:42.250Z,100694.84
2023-02-18T01:00:45.309Z,100690.41
2023-02-18T01:03:48.015Z,100682.31
2023-02-18T01:06:50.838Z,100682.34
2023-02-18T01:09:53.533Z,100684.19
2023-02-18T01:12:56.518Z,100685.84
2023-02-18T01:15:59.488Z,100681.34
2023-02-18T01:19:06.587Z,100682.28
2023-02-18T01:22:09.164Z,100679.44
2023-02-18T01:25:12.432Z,100686.59
2023-02-18T01:28:16.525Z,100680.25
2023-02-18T01:31:19.701Z,100673.94
2023-02-18T01:34:22.405Z,100664.13
2023-02-18T01:37:26.199Z,100673.16
2023-02-18T01:40:30.719Z,100663.28
2023-02-18T01:43:35.220Z,100665.97
2023-02-18T01:46:38.248Z,100667.72
2023-02-18T01:49:41.573Z,100668.63
2023-02-18T01:52:44.178Z,100661.59
2023-02-18T01:55:47.943Z,100667.09
2023-02-18T01:58:52.574Z,100669.88
2023-02-18T02:01:56.030Z,100661.84
2023-02-18T02:04:59.009Z,100655.69
2023-02-18T02:08:02.479Z,100652.03
2023-02-18T02:11:19.725Z,100648.56
2023-02-18T02:14:37.027Z,100643.78
2023-02-18T02:18:05.923Z,100659.88
2023-02-18T02:21:34.065Z,100649.19
2023-02-18T02:24:57.604Z,100643.72
2023-02-18T02:28:31.597Z,100644.66
2023-02-18T02:31:59.499Z,100634.81
2023-02-18T02:35:23.769Z,100627.53
2023-02-18T02:38:40.638Z,100631.13
2023-02-18T02:41:48.825Z,100632.88
2023-02-18T02:45:34.835Z,100639.28
2023-02-18T02:49:06.523Z,100640.97
2023-02-18T02:52:18.919Z,100640.19
2023-02-18T02:55:21.769Z,100647.31
2023-02-18T02:58:25.135Z,100652.81
2023-02-18T03:01:57.156Z,100651.94
2023-02-18T03:05:09.296Z,100652.72
2023-02-18T03:08:32.956Z,100663.59
2023-02-18T03:12:03.822Z,100660.03
2023-02-18T03:15:38.928Z,100656.44
2023-02-18T03:18:47.424Z,100655.44
2023-02-18T03:22:04.186Z,100667.16
2023-02-18T03:25:07.879Z,100664.47
2023-02-18T03:28:20.760Z,100664.56
2023-02-18T03:31:26.731Z,100671.88
2023-02-18T03:34:31.977Z,100665.72
2023-02-18T03:37:38.576Z,100662.12
2023-02-18T03:40:41.335Z,100656.88
2023-02-18T03:43:51.964Z,100665.94
2023-02-18T03:46:54.738Z,100672.38
2023-02-18T03:49:57.627Z,100672.44
2023-02-18T03:53:00.156Z,100673.47
2023-02-18T03:56:03.175Z,100674.34
2023-02-18T03:59:05.998Z,100675.31
2023-02-18T04:02:09.086Z,100670.87
2023-02-18T04:05:12.088Z,100671.75
2023-02-18T04:08:14.678Z,100669.97
2023-02-18T04:11:17.890Z,100669.06
2023-02-18T04:14:20.473Z,100657.28
2023-02-18T04:17:23.382Z,100658.06
2023-02-18T04:20:27.251Z,100663.44
2023-02-18T04:23:30.134Z,100663.44
2023-02-18T04:26:32.750Z,100667.00
2023-02-18T04:29:36.081Z,100664.34
2023-02-18T04:32:38.922Z,100666.19
2023-02-18T04:35:42.119Z,100656.47
2023-02-18T04:38:44.739Z,100660.91
2023-02-18T04:41:47.582Z,100667.22
2023-02-18T04:44:50.228Z,100673.44
2023-02-18T04:47:53.175Z,100659.84
2023-02-18T04:50:56.306Z,100666.19
2023-02-18T04:53:59.259Z,100667.13
2023-02-18T04:57:01.911Z,100668.97
2023-02-18T05:00:07.187Z,100677.87
2023-02-18T05:03:09.977Z,100676.12
2023-02-18T05:06:12.802Z,100686.00
2023-02-18T05:09:15.726Z,100680.47
2023-02-18T05:12:18.570Z,100691.28
2023-02-18T05:15:21.185Z,100685.00
2023-02-18T05:18:24.113Z,100694.09
2023-02-18T05:21:26.696Z,100690.50
2023-02-18T05:24:29.631Z,100697.59
2023-02-18T05:27:32.244Z,100712.81
2023-02-18T05:30:35.214Z,100707.38
2023-02-18T05:33:37.809Z,100733.75
2023-02-18T05:36:40.668Z,100743.78
2023-02-18T05:39:43.238Z,100745.66
2023-02-18T05:42:46.286Z,100753.56
2023-02-18T05:45:48.890Z,100743.91
2023-02-18T05:48:51.869Z,100743.06
2023-02-18T05:51:54.438Z,100738.66
2023-02-18T05:54:57.280Z,100738.72
2023-02-18T05:57:59.886Z,100742.37
2023-02-18T06:01:02.797Z,100746.03
2023-02-18T06:04:05.658Z,100744.22
2023-02-18T06:07:08.249Z,100756.78
2023-02-18T06:10:12.418Z,100756.78
2023-02-18T06:13:14.929Z,100765.75
2023-02-18T06:16:17.802Z,100771.16
2023-02-18T06:19:20.821Z,100767.53
2023-02-18T06:22:23.644Z,100771.16
2023-02-18T06:25:26.136Z,100773.84
2023-02-18T06:28:29.040Z,100772.94
2023-02-18T06:31:31.911Z,100763.09
2023-02-18T06:34:34.850Z,100767.56
2023-02-18T06:37:37.370Z,100755.03
2023-02-18T06:40:40.219Z,100761.34
2023-02-18T06:43:42.848Z,100760.44
2023-02-18T06:46:45.811Z,100759.59
2023-02-18T06:49:48.466Z,100756.00
2023-02-18T06:52:51.305Z,100755.06
2023-02-18T06:55:53.819Z,100757.78
2023-02-18T06:58:56.883Z,100758.69
2023-02-18T07:01:59.439Z,100756.00
2023-02-18T07:05:02.423Z,100747.00
2023-02-18T07:08:05.102Z,100748.78
2023-02-18T07:11:08.042Z,100744.28
2023-02-18T07:14:10.955Z,100752.34
2023-02-18T07:17:14.869Z,100756.84
2023-02-18T07:20:17.873Z,100753.25
2023-02-18T07:23:20.754Z,100765.81
2023-02-18T07:26:25.690Z,100766.69
2023-02-18T07:29:28.558Z,100763.09
2023-02-18T07:32:31.693Z,100766.66
2023-02-18T07:35:34.572Z,100757.69
2023-02-18T07:38:37.116Z,100757.66
2023-02-18T07:41:40.299Z,100756.72
2023-02-18T07:44:45.673Z,100742.28
2023-02-18T07:47:48.564Z,100741.38
2023-02-18T07:50:51.353Z,100747.59
2023-02-18T07:53:54.910Z,100750.25
2023-02-18T07:56:57.489Z,100749.31
2023-02-18T08:00:00.421Z,100745.91
2023-02-18T08:03:03.069Z,100746.59
2023-02-18T08:06:07.205Z,100743.03
2023-02-18T08:09:10.169Z,100746.66
2023-02-18T08:12:13.373Z,100732.13
2023-02-18T08:15:16.054Z,100734.44
2023-02-18T08:18:23.203Z,100741.47
2023-02-18T08:21:26.616Z,100724.25
2023-02-18T08:24:29.674Z,100736.06
2023-02-18T08:27:32.246Z,100729.59
2023-02-18T08:30:35.309Z,100728.13
2023-02-18T08:33:38.119Z,100728.97
2023-02-18T08:36:41.135Z,100738.87
2023-02-18T08:39:43.733Z,100721.47
2023-02-18T08:42:46.675Z,100732.41
2023-02-18T08:45:49.359Z,100731.44
2023-02-18T08:48:52.272Z,100739.06
2023-02-18T08:51:54.936Z,100748.00
2023-02-18T08:54:57.726Z,100730.66
2023-02-18T08:58:01.318Z,100724.09
2023-02-18T09:01:10.168Z,100724.75
2023-02-18T09:04:12.958Z,100718.19
2023-02-18T09:07:15.881Z,100714.03
2023-02-18T09:10:18.613Z,100713.41
2023-02-18T09:13:21.528Z,100726.97
2023-02-18T09:16:26.202Z,100719.53
2023-02-18T09:19:29.277Z,100719.63
2023-02-18T09:22:32.783Z,100715.91
2023-02-18T09:25:35.843Z,100717.31
2023-02-18T09:28:38.420Z,100717.94
2023-02-18T09:31:41.338Z,100709.97
2023-02-18T09:34:44.897Z,100703.34
2023-02-18T09:37:49.448Z,100710.16
2023-02-18T09:40:54.087Z,100709.22
2023-02-18T09:44:00.284Z,100698.97
2023-02-18T09:47:17.408Z,100716.50
2023-02-18T09:50:26.680Z,100708.63
2023-02-18T09:53:29.435Z,100704.13
2023-02-18T09:56:34.936Z,100698.28
2023-02-18T09:59:37.605Z,100693.56
2023-02-18T10:02:42.525Z,100693.50
2023-02-18T10:05:55.618Z,100695.75
2023-02-18T10:09:01.391Z,100697.44
2023-02-18T10:12:19.012Z,100691.28
2023-02-18T10:15:25.238Z,100685.13
2023-02-18T10:18:34.087Z,100678.16
2023-02-18T10:21:36.784Z,100678.66
2023-02-18T10:24:54.982Z,100664.13
2023-02-18T10:27:58.981Z,100680.72
2023-02-18T10:31:11.245Z,100659.47
2023-02-18T10:34:17.066Z,100650.31
2023-02-18T10:37:34.975Z,100654.34
2023-02-18T10:40:50.132Z,100655.00
2023-02-18T10:44:01.162Z,100654.50
2023-02-18T10:47:06.718Z,100649.72
2023-02-18T10:50:27.831Z,100649.44
2023-02-18T10:53:42.230Z,100658.13
2023-02-18T10:56:50.133Z,100660.34
2023-02-18T11:00:17.482Z,100651.75
2023-02-18T11:03:22.985Z,100650.25
2023-02-18T11:06:33.681Z,100651.94
2023-02-18T11:09:50.028Z,100637.34
2023-02-18T11:12:58.199Z,100648.59
2023-02-18T11:16:12.351Z,100650.44
2023-02-18T11:19:34.641Z,100641.72
2023-02-18T11:22:39.883Z,100636.19
2023-02-18T11:25:53.692Z,100625.34
2023-02-18T11:29:00.698Z,100624.34
2023-02-18T11:32:03.463Z,100614.13
2023-02-18T11:35:06.568Z,100592.25
2023-02-18T11:38:23.580Z,100581.53
2023-02-18T11:41:31.904Z,100566.91
2023-02-18T11:44:37.350Z,100565.22
2023-02-18T11:47:40.209Z,100561.53
2023-02-18T11:50:43.319Z,100558.19
2023-02-18T11:53:59.807Z,100556.28
2023-02-18T11:57:05.365Z,100548.16
2023-02-18T12:00:21.091Z,100544.00
2023-02-18T12:03:42.715Z,100535.59
2023-02-18T12:07:19.132Z,100537.09
2023-02-18T12:10:43.932Z,100525.78
2023-02-18T12:13:55.988Z,100517.81
2023-02-18T12:17:08.003Z,100515.13
2023-02-18T12:20:37.891Z,100508.53
2023-02-18T12:23:55.655Z,100503.44
2023-02-18T12:27:16.916Z,100506.88
2023-02-18T12:30:37.773Z,100495.13
2023-02-18T12:33:59.004Z,100485.03
2023-02-18T12:37:40.144Z,100476.78
2023-02-18T12:40:52.641Z,100479.12
2023-02-18T12:44:24.833Z,100479.44
2023-02-18T12:47:27.219Z,100480.56
2023-02-18T12:50:40.316Z,100463.78
2023-02-18T12:54:13.611Z,100472.31
2023-02-18T12:57:35.131Z,100463.47
2023-02-18T13:00:48.239Z,100445.56
2023-02-18T13:04:09.580Z,100435.97
2023-02-18T13:07:27.181Z,100421.78
2023-02-18T13:10:39.208Z,100420.91
2023-02-18T13:13:53.387Z,100415.53
2023-02-18T13:16:58.570Z,100394.56
2023-02-18T13:20:05.828Z,100405.69
2023-02-18T13:23:23.646Z,100396.84
2023-02-18T13:26:26.819Z,100391.62
2023-02-18T13:29:36.197Z,100389.00
2023-02-18T13:33:03.890Z,100397.84
2023-02-18T13:36:31.751Z,100376.78
2023-02-18T13:39:34.781Z,100368.56
2023-02-18T13:42:38.130Z,100369.50
2023-02-18T13:45:41.521Z,100358.59
2023-02-18T13:48:47.486Z,100344.06
2023-02-18T13:51:57.737Z,100352.28
2023-02-18T13:55:00.943Z,100345.87
2023-02-18T13:58:03.986Z,100351.69
2023-02-18T14:01:14.954Z,100347.16
2023-02-18T14:04:39.656Z,100344.06
2023-02-18T14:07:53.569Z,100326.34
2023-02-18T14:11:12.080Z,100323.53
2023-02-18T14:14:26.586Z,100319.31
2023-02-18T14:17:31.288Z,100319.78
2023-02-18T14:20:40.710Z,100311.03
2023-02-18T14:23:44.688Z,100305.63
2023-02-18T14:26:49.291Z,100296.59
2023-02-18T14:29:52.847Z,100285.25
2023-02-18T14:32:58.685Z,100283.00
2023-02-18T14:36:16.451Z,100278.75
2023-02-18T14:39:44.845Z,100262.72
2023-02-18T14:43:05.387Z,100272.72
2023-02-18T14:46:25.269Z,100272.78
2023-02-18T14:49:28.359Z,100252.41
2023-02-18T14:52:33.810Z,100256.44
2023-02-18T14:55:41.919Z,100260.25
2023-02-18T14:58:48.544Z,100249.19
2023-02-18T15:01:54.957Z,100248.25
2023-02-18T15:05:20.583Z,100240.22
2023-02-18T15:08:25.811Z,100239.44
2023-02-18T15:11:36.849Z,100243.41
2023-02-18T15:14:43.572Z,100242.56
2023-02-18T15:17:47.496Z,100244.37
2023-02-18T15:20:50.887Z,100239.25
2023-02-18T15:23:53.842Z,100234.34
2023-02-18T15:26:59.817Z,100240.09
2023-02-18T15:30:08.710Z,100227.59
2023-02-18T15:33:15.287Z,100234.53
2023-02-18T15:36:17.867Z,100233.81
2023-02-18T15:39:20.952Z,100230.31
2023-02-18T15:42:30.382Z,100236.94
2023-02-18T15:45:42.253Z,100237.22
2023-02-18T15:48:49.024Z,100232.69
2023-02-18T15:51:56.267Z,100218.16
2023-02-18T15:55:05.295Z,100224.88
2023-02-18T15:58:13.465Z,100221.53
2023-02-18T16:01:29.770Z,100228.81
2023-02-18T16:04:34.853Z,100222.66
2023-02-18T16:07:49.486Z,100218.66
2023-02-18T16:11:03.120Z,100208.91
2023-02-18T16:14:06.274Z,100222.88
2023-02-18T16:17:14.348Z,100216.75
2023-02-18T16:20:36.166Z,100209.72
2023-02-18T16:23:57.942Z,100216.16
2023-02-18T16:27:01.932Z,100212.69
2023-02-18T16:30:22.303Z,100214.59
2023-02-18T16:33:25.125Z,100211.31
2023-02-18T16:36:27.909Z,100210.59
2023-02-18T16:39:34.184Z,100199.31
2023-02-18T16:42:37.375Z,100200.94
2023-02-18T16:45:42.459Z,100199.84
2023-02-18T16:48:55.058Z,100199.84
2023-02-18T16:52:08.462Z,100203.63
2023-02-18T16:55:23.071Z,100194.88
2023-02-18T16:58:25.935Z,100213.72
2023-02-18T17:01:30.919Z,100208.09
2023-02-18T17:04:33.784Z,100216.47
2023-02-18T17:07:37.057Z,100211.78
2023-02-18T17:10:39.783Z,100226.56
2023-02-18T17:13:43.045Z,100228.75
2023-02-18T17:16:47.147Z,100233.47
2023-02-18T17:19:50.122Z,100242.38
2023-02-18T17:22:53.073Z,100247.75
2023-02-18T17:25:57.590Z,100243.91
2023-02-18T17:29:00.988Z,100249.44
2023-02-18T17:32:05.752Z,100255.84
2023-02-18T17:35:08.553Z,100253.06
2023-02-18T17:38:13.446Z,100245.84
2023-02-18T17:41:16.378Z,100237.78
2023-02-18T17:44:22.139Z,100254.81
2023-02-18T17:47:24.940Z,100253.47
2023-02-18T17:50:29.503Z,100248.16
2023-02-18T17:53:32.327Z,100249.06
2023-02-18T17:56:36.293Z,100252.34
2023-02-18T17:59:39.126Z,100252.19
2023-02-18T18:02:42.384Z,100259.94
2023-02-18T18:05:49.071Z,100259.12
2023-02-18T18:08:53.953Z,100260.63
2023-02-18T18:11:57.040Z,100273.50
2023-02-18T18:15:01.754Z,100265.59
2023-02-18T18:18:06.723Z,100257.66
2023-02-18T18:21:19.169Z,100250.66
2023-02-18T18:24:22.269Z,100241.63
2023-02-18T18:27:26.777Z,100255.94
2023-02-18T18:30:34.795Z,100266.12
2023-02-18T18:33:37.616Z,100257.22
2023-02-18T18:36:40.396Z,100243.06
2023-02-18T18:39:45.199Z,100256.12
2023-02-18T18:42:56.878Z,100255.50
2023-02-18T18:46:00.764Z,100260.09
2023-02-18T18:49:04.582Z,100272.00
2023-02-18T18:52:10.074Z,100273.22
2023-02-18T18:55:33.063Z,100280.28
2023-02-18T18:58:35.847Z,100286.84
2023-02-18T19:01:39.104Z,100281.69
2023-02-18T19:04:41.981Z,100289.81
2023-02-18T19:07:45.075Z,100284.00
2023-02-18T19:10:53.440Z,100287.09
2023-02-18T19:13:56.587Z,100293.56
2023-02-18T19:16:59.507Z,100292.56
2023-02-18T19:20:06.993Z,100311.37
2023-02-18T19:23:09.998Z,100300.53
2023-02-18T19:26:15.221Z,100310.63
2023-02-18T19:29:19.441Z,100310.88
2023-02-18T19:32:24.049Z,100311.75
2023-02-18T19:35:28.942Z,100318.25
2023-02-18T19:38:32.049Z,100318.25
2023-02-18T19:41:34.736Z,100313.16
2023-02-18T19:44:37.605Z,100319.53
2023-02-18T19:47:40.302Z,100325.94
2023-02-18T19:50:43.941Z,100321.72
2023-02-18T19:53:46.506Z,100320.91
2023-02-18T19:56:49.636Z,100325.41
2023-02-18T19:59:52.476Z,100329.94
2023-02-18T20:02:55.590Z,100340.69
2023-02-18T20:05:58.416Z,100337.03
2023-02-18T20:09:01.177Z,100340.81
2023-02-18T20:12:04.717Z,100347.09
2023-02-18T20:15:07.977Z,100339.84
2023-02-18T20:18:11.230Z,100337.19
2023-02-18T20:21:13.805Z,100336.69
2023-02-18T20:24:17.128Z,100339.81
2023-02-18T20:27:19.980Z,100330.81
2023-02-18T20:30:23.024Z,100338.53
2023-02-18T20:33:25.888Z,100339.72
2023-02-18T20:36:29.022Z,100334.38
2023-02-18T20:39:31.608Z,100337.03
2023-02-18T20:42:34.676Z,100344.75
2023-02-18T20:45:37.836Z,100345.63
2023-02-18T20:48:41.213Z,100351.88
2023-02-18T20:51:44.399Z,100347.53
2023-02-18T20:54:48.071Z,100361.91
2023-02-18T20:57:50.864Z,100370.22
2023-02-18T21:01:05.366Z,100366.81
2023-02-18T21:04:11.196Z,100366.59
2023-02-18T21:07:14.309Z,100362.06
2023-02-18T21:10:18.200Z,100370.25
2023-02-18T21:13:21.836Z,100370.31
2023-02-18T21:16:26.624Z,100383.13
2023-02-18T21:19:29.872Z,100390.97
2023-02-18T21:22:32.380Z,100392.72
2023-02-18T21:25:38.315Z,100403.47
2023-02-18T21:28:40.986Z,100399.13
2023-02-18T21:31:44.175Z,100419.19
2023-02-18T21:34:47.144Z,100412.22
2023-02-18T21:37:50.965Z,100417.72
2023-02-18T21:40:53.661Z,100425.03
2023-02-18T21:43:56.754Z,100430.44
2023-02-18T21:46:59.466Z,100431.53
2023-02-18T21:50:03.644Z,100431.53
2023-02-18T21:53:06.372Z,100430.78
2023-02-18T21:56:11.446Z,100442.69
2023-02-18T21:59:14.091Z,100446.34
2023-02-18T22:02:25.840Z,100449.22
2023-02-18T22:05:30.613Z,100444.84
2023-02-18T22:08:33.158Z,100449.28
2023-02-18T22:11:36.158Z,100456.47
2023-02-18T22:14:39.652Z,100458.22
2023-02-18T22:17:42.518Z,100460.87
2023-02-18T22:20:45.200Z,100454.47
2023-02-18T22:23:48.107Z,100459.88
2023-02-18T22:26:50.775Z,100450.87
2023-02-18T22:29:54.332Z,100459.91
2023-02-18T22:32:56.976Z,100467.97
2023-02-18T22:36:09.424Z,100468.06
2023-02-18T22:39:13.085Z,100475.38
2023-02-18T22:42:15.960Z,100474.56
2023-02-18T22:45:18.458Z,100462.88
2023-02-18T22:48:21.342Z,100465.66
2023-02-18T22:51:29.616Z,100463.81
2023-02-18T22:54:32.542Z,100469.38
2023-02-18T22:57:35.189Z,100471.31
2023-02-18T23:00:38.051Z,100465.16
2023-02-18T23:03:40.725Z,100475.94
2023-02-18T23:06:44.893Z,100474.06
2023-02-18T23:09:47.490Z,100472.09
2023-02-18T23:12:50.430Z,100473.88
2023-02-18T23:16:00.414Z,100472.09
2023-02-18T23:19:03.309Z,100474.72
2023-02-18T23:22:06.335Z,100479.06
2023-02-18T23:25:09.685Z,100464.72
2023-02-18T23:28:12.282Z,100471.97
2023-02-18T23:31:20.124Z,100473.75
2023-02-18T23:34:22.804Z,100468.44
2023-02-18T23:37:44.438Z,100480.16
2023-02-18T23:40:47.647Z,100477.50
2023-02-18T23:43:50.854Z,100475.88
2023-02-18T23:46:53.653Z,100476.75
2023-02-18T23:49:56.564Z,100479.09
2023-02-18T23:52:59.154Z,100482.59
2023-02-18T23:56:04.094Z,100481.53
2023-02-18T23:59:06.912Z,100482.59
